Time;durP1;ratioP1;P1;durP2;ratioP2;P2;SDS_P1;SDS_P2;PMS_P1;PMS_P2;Temp;Humidity;BMP_temperature;BMP_pressure;BME280_temperature;BME280_humidity;BME280_pressure;Samples;Min_cycle;Max_cycle;Signal;HPM_P1;HPM_P2
2022/04/11 00:01:21;;;;;;;5.35;3.60;;;;;;;2.58;73.23;101325.94;4947679;28;20069;-69
2022/04/11 00:03:46;;;;;;;6.72;3.33;;;;;;;2.53;73.40;101324.44;4924069;28;20909;-69
2022/04/11 00:06:12;;;;;;;3.08;2.80;;;;;;;2.57;73.22;101329.44;4942353;28;20031;-69
2022/04/11 00:08:38;;;;;;;3.20;2.88;;;;;;;2.60;73.19;101331.06;4948813;28;20842;-72
2022/04/11 00:11:03;;;;;;;3.90;2.80;;;;;;;2.56;73.12;101319.91;4944362;28;20436;-72
2022/04/11 00:13:29;;;;;;;3.60;2.83;;;;;;;2.56;73.03;101329.53;4946680;28;20033;-71
2022/04/11 00:15:54;;;;;;;4.35;2.90;;;;;;;2.55;73.10;101322.59;4944699;28;20429;-72
2022/04/11 00:18:20;;;;;;;3.63;3.08;;;;;;;2.50;73.73;101324.59;4955780;28;20167;-71
2022/04/11 00:20:47;;;;;;;3.80;2.67;;;;;;;2.49;73.62;101321.13;4941445;28;20066;-71
2022/04/11 00:23:12;;;;;;;6.53;3.38;;;;;;;2.48;73.62;101321.19;4936735;28;20018;-71
2022/04/11 00:25:38;;;;;;;5.00;2.67;;;;;;;2.55;73.15;101314.75;4945530;28;20829;-70
2022/04/11 00:28:03;;;;;;;3.25;2.70;;;;;;;2.57;73.31;101315.56;4942088;28;20030;-70
2022/04/11 00:30:29;;;;;;;2.83;2.63;;;;;;;2.58;73.31;101319.84;4946403;28;20018;-70
2022/04/11 00:32:54;;;;;;;3.20;3.00;;;;;;;2.57;73.29;101307.72;4950563;28;20102;-70
2022/04/11 00:35:19;;;;;;;3.53;2.40;;;;;;;2.57;73.26;101300.72;4948973;28;20043;-70
2022/04/11 00:37:45;;;;;;;3.17;2.80;;;;;;;2.57;73.34;101305.09;4946260;28;20049;-71
2022/04/11 00:40:10;;;;;;;3.03;2.83;;;;;;;2.54;73.40;101295.63;4943409;28;20049;-71
2022/04/11 00:42:37;;;;;;;3.28;2.92;;;;;;;2.53;73.44;101298.31;4928005;28;20282;-71
2022/04/11 00:45:03;;;;;;;6.07;3.03;;;;;;;2.49;73.73;101308.06;4939463;28;20039;-71
2022/04/11 00:47:29;;;;;;;4.85;3.00;;;;;;;2.47;73.64;101304.69;4942666;28;20127;-69
2022/04/11 00:50:07;;;;;;;2.92;2.72;;;;;;;2.49;73.41;101302.81;4950904;28;20995;-69
2022/04/11 00:52:34;;;;;;;3.38;2.78;;;;;;;2.48;73.33;101297.69;4947115;28;20088;-70
2022/04/11 00:54:59;;;;;;;3.75;2.67;;;;;;;2.52;73.72;101292.22;4953217;28;20040;-69
2022/04/11 00:57:24;;;;;;;2.88;2.67;;;;;;;2.47;73.34;101295.97;4939798;28;20027;-69
2022/04/11 00:59:50;;;;;;;3.78;2.72;;;;;;;2.50;73.39;101295.84;4930823;28;20010;-69
2022/04/11 01:02:16;;;;;;;4.70;2.65;;;;;;;2.53;73.25;101298.31;4945910;28;20081;-70
2022/04/11 01:04:41;;;;;;;3.90;2.40;;;;;;;2.47;73.32;101290.75;4949772;28;20023;-70
2022/04/11 01:07:08;;;;;;;4.30;2.85;;;;;;;2.53;73.67;101290.47;4945476;28;20019;-70
2022/04/11 01:09:33;;;;;;;3.47;2.63;;;;;;;2.45;73.61;101287.38;4952695;28;20165;-68
2022/04/11 01:11:58;;;;;;;3.08;2.45;;;;;;;2.46;73.63;101286.47;4962293;28;20352;-69
2022/04/11 01:14:24;;;;;;;3.40;2.90;;;;;;;2.47;73.22;101282.91;4963884;28;20043;-69
2022/04/11 01:16:50;;;;;;;2.78;2.67;;;;;;;2.44;73.60;101280.44;4957497;28;20545;-69
2022/04/11 01:19:15;;;;;;;5.30;2.85;;;;;;;2.49;73.49;101278.47;4944885;28;20814;-70
2022/04/11 01:21:42;;;;;;;3.45;2.80;;;;;;;2.49;73.73;101271.47;4941173;28;20088;-70
2022/04/11 01:24:07;;;;;;;4.05;2.70;;;;;;;2.53;73.25;101282.66;4947437;28;20065;-70
2022/04/11 01:26:33;;;;;;;2.75;2.55;;;;;;;2.49;73.80;101279.31;4942166;28;20026;-70
2022/04/11 01:28:58;;;;;;;3.03;2.72;;;;;;;2.53;73.79;101272.19;4947823;28;20349;-70
2022/04/11 01:31:25;;;;;;;4.10;2.80;;;;;;;2.56;74.13;101274.66;4944805;28;20018;-70
2022/04/11 01:33:50;;;;;;;2.83;2.63;;;;;;;2.51;74.40;101268.78;4942254;28;20144;-70
2022/04/11 01:36:15;;;;;;;2.72;2.53;;;;;;;2.51;74.87;101259.22;4939909;28;20016;-70
2022/04/11 01:38:41;;;;;;;3.40;2.55;;;;;;;2.60;74.49;101257.09;4941678;28;20445;-70
2022/04/11 01:41:06;;;;;;;3.08;2.83;;;;;;;2.62;74.47;101260.47;4937814;28;20284;-70
2022/04/11 01:43:32;;;;;;;3.08;2.78;;;;;;;2.65;74.45;101255.94;4941481;28;20026;-69
2022/04/11 01:45:57;;;;;;;3.03;2.55;;;;;;;2.66;74.30;101252.41;4943675;28;20818;-71
2022/04/11 01:48:22;;;;;;;3.33;2.92;;;;;;;2.66;74.07;101247.16;4940154;28;20025;-70
2022/04/11 01:50:48;;;;;;;2.88;2.70;;;;;;;2.69;74.06;101252.28;4947060;28;20121;-70
2022/04/11 01:53:15;;;;;;;3.10;2.88;;;;;;;2.67;74.01;101248.03;4943307;28;20418;-72
2022/04/11 01:55:40;;;;;;;3.33;3.00;;;;;;;2.68;73.86;101249.69;4938622;28;20038;-69
2022/04/11 01:58:06;;;;;;;3.22;2.92;;;;;;;2.70;73.57;101245.25;4941118;28;20018;-71
2022/04/11 02:00:32;;;;;;;3.17;2.97;;;;;;;2.74;73.64;101238.97;4929070;28;20014;-70
2022/04/11 02:03:03;;;;;;;3.42;3.13;;;;;;;2.83;73.36;101240.28;4944624;28;20061;-70
2022/04/11 02:05:29;;;;;;;3.30;3.00;;;;;;;2.84;73.66;101239.38;4938727;28;20096;-70
2022/04/11 02:07:55;;;;;;;2.97;2.75;;;;;;;2.90;73.23;101249.53;4945660;28;20034;-69
2022/04/11 02:10:20;;;;;;;3.25;2.83;;;;;;;2.93;73.15;101238.91;4944643;28;20031;-69
2022/04/11 02:12:47;;;;;;;3.10;2.80;;;;;;;2.91;73.07;101239.00;4945007;28;20033;-69
2022/04/11 02:15:12;;;;;;;2.78;2.60;;;;;;;2.89;73.25;101243.47;4944348;28;20397;-69
2022/04/11 02:17:38;;;;;;;3.53;2.78;;;;;;;3.02;72.76;101242.88;4952186;28;20025;-70
2022/04/11 02:20:05;;;;;;;3.00;2.80;;;;;;;2.91;73.21;101241.59;4941176;28;20053;-69
2022/04/11 02:22:48;;;;;;;2.90;2.70;;;;;;;2.94;73.09;101229.31;4945259;28;21006;-70
2022/04/11 02:25:13;;;;;;;3.30;2.90;;;;;;;3.04;72.51;101234.00;4944002;28;20015;-69
2022/04/11 02:27:39;;;;;;;3.03;2.83;;;;;;;2.98;72.65;101228.25;4943171;28;20404;-71
2022/04/11 02:30:05;;;;;;;3.30;2.65;;;;;;;3.02;72.68;101227.19;4941339;28;20885;-71
2022/04/11 02:32:31;;;;;;;4.35;3.30;;;;;;;3.02;72.38;101230.63;4942282;28;20014;-71
2022/04/11 02:34:56;;;;;;;3.22;2.92;;;;;;;3.05;72.35;101230.47;4921190;28;20049;-71
2022/04/11 02:37:21;;;;;;;3.00;2.80;;;;;;;3.14;71.77;101230.94;4934057;28;20014;-69
2022/04/11 02:39:47;;;;;;;2.90;2.70;;;;;;;3.13;71.73;101226.63;4938428;28;20834;-69
2022/04/11 02:42:25;;;;;;;2.75;2.55;;;;;;;3.19;71.25;101228.94;4941575;28;20034;-69
2022/04/11 02:44:51;;;;;;;2.88;2.70;;;;;;;3.35;70.86;101229.00;4942588;28;20079;-71
2022/04/11 02:47:16;;;;;;;3.45;2.47;;;;;;;3.32;70.49;101230.00;4940781;28;20011;-70
2022/04/11 02:49:42;;;;;;;3.22;2.92;;;;;;;3.40;70.10;101235.69;4924044;28;20042;-70
2022/04/11 02:52:07;;;;;;;4.13;2.60;;;;;;;3.39;69.66;101228.75;4938888;28;20034;-70
2022/04/11 02:54:33;;;;;;;3.10;2.80;;;;;;;3.40;69.41;101233.09;4942855;28;20023;-70
2022/04/11 02:56:58;;;;;;;2.80;2.60;;;;;;;3.39;69.85;101220.09;4941695;28;20951;-70
2022/04/11 02:59:23;;;;;;;2.53;2.42;;;;;;;3.39;69.62;101225.31;4947897;28;20710;-70
2022/04/11 03:01:49;;;;;;;4.70;2.65;;;;;;;3.43;69.37;101227.69;4941615;28;20030;-70
2022/04/11 03:04:18;;;;;;;3.40;2.50;;;;;;;3.39;69.79;101230.53;4945442;28;20403;-70
2022/04/11 03:06:43;;;;;;;3.90;2.67;;;;;;;3.47;69.52;101230.13;4942759;28;20015;-70
2022/04/11 03:09:08;;;;;;;2.78;2.55;;;;;;;3.35;69.66;101229.84;4941134;28;20220;-70
2022/04/11 03:11:37;;;;;;;2.40;2.30;;;;;;;3.38;69.55;101223.63;4949816;28;20038;-70
2022/04/11 03:14:02;;;;;;;2.70;2.50;;;;;;;3.34;69.82;101228.19;4940803;28;20134;-69
2022/04/11 03:16:27;;;;;;;3.45;2.88;;;;;;;3.36;69.92;101221.09;4942518;28;20483;-70
2022/04/11 03:18:53;;;;;;;2.83;2.63;;;;;;;3.63;69.28;101231.03;4925426;28;20103;-71
2022/04/11 03:21:19;;;;;;;3.88;2.70;;;;;;;3.50;68.60;101229.97;4946111;28;21023;-70
2022/04/11 03:23:44;;;;;;;2.95;2.70;;;;;;;3.49;69.29;101215.22;4943116;28;20034;-70
2022/04/11 03:26:09;;;;;;;4.35;2.60;;;;;;;3.54;69.66;101221.03;4944547;28;20031;-70
2022/04/11 03:28:35;;;;;;;2.78;2.47;;;;;;;3.53;69.09;101216.75;4942947;28;20121;-70
2022/04/11 03:31:00;;;;;;;2.80;2.58;;;;;;;3.41;69.06;101226.94;4944650;28;20105;-69
2022/04/11 03:33:26;;;;;;;2.72;2.38;;;;;;;3.48;68.90;101224.00;4950249;28;20123;-71
2022/04/11 03:35:51;;;;;;;2.20;2.10;;;;;;;3.36;69.62;101228.94;4941323;28;22677;-72
2022/04/11 03:38:17;;;;;;;3.83;2.72;;;;;;;3.43;69.68;101226.84;4939654;28;20694;-69
2022/04/11 03:40:42;;;;;;;3.53;2.63;;;;;;;3.47;69.54;101223.16;4941999;28;20551;-71
2022/04/11 03:43:07;;;;;;;2.72;2.47;;;;;;;3.43;69.83;101232.09;4947892;28;20018;-70
2022/04/11 03:45:33;;;;;;;2.35;2.20;;;;;;;3.38;69.81;101223.63;4942159;28;20030;-69
2022/04/11 03:47:58;;;;;;;2.30;2.20;;;;;;;3.31;70.24;101217.84;4950321;28;20027;-71
2022/04/11 03:50:23;;;;;;;3.30;2.13;;;;;;;3.28;69.95;101217.16;4925926;28;20856;-71
2022/04/11 03:52:49;;;;;;;2.85;2.50;;;;;;;3.21;69.97;101214.84;4945549;28;20057;-69
2022/04/11 03:55:14;;;;;;;3.95;2.63;;;;;;;3.24;70.17;101216.47;4943389;28;20598;-71
2022/04/11 03:57:40;;;;;;;2.83;2.50;;;;;;;3.20;70.20;101214.94;4947208;28;20041;-71
2022/04/11 04:00:05;;;;;;;2.55;2.20;;;;;;;3.20;70.03;101220.16;4945541;28;20011;-69
2022/04/11 04:02:31;;;;;;;2.53;2.40;;;;;;;3.21;69.81;101216.63;4942492;28;20146;-70
2022/04/11 04:04:56;;;;;;;3.42;2.45;;;;;;;3.11;69.69;101220.63;4942167;28;20061;-69
2022/04/11 04:07:22;;;;;;;2.55;2.30;;;;;;;3.12;69.81;101211.84;4951677;28;20569;-70
2022/04/11 04:09:47;;;;;;;3.15;2.67;;;;;;;3.13;70.11;101213.56;4943341;28;20093;-69
2022/04/11 04:12:12;;;;;;;2.83;2.38;;;;;;;3.10;70.00;101219.78;4947203;28;20125;-70
2022/04/11 04:14:38;;;;;;;2.53;2.20;;;;;;;3.29;69.50;101217.09;4940656;28;20116;-69
2022/04/11 04:17:03;;;;;;;2.58;2.20;;;;;;;3.09;70.07;101213.72;4942651;28;20027;-72
2022/04/11 04:19:29;;;;;;;4.05;2.40;;;;;;;3.24;69.67;101206.88;4945213;28;20019;-72
2022/04/11 04:21:54;;;;;;;2.85;2.30;;;;;;;3.04;70.08;101207.03;4927409;28;20642;-72
2022/04/11 04:24:22;;;;;;;3.45;2.55;;;;;;;3.07;69.58;101212.94;4949162;28;20059;-71
2022/04/11 04:26:48;;;;;;;4.00;2.30;;;;;;;3.14;69.41;101213.47;4954895;28;20489;-70
2022/04/11 04:29:16;;;;;;;2.65;2.35;;;;;;;3.12;69.55;101206.63;4963661;28;20740;-70
2022/04/11 04:31:42;;;;;;;5.28;2.70;;;;;;;2.82;70.34;101207.22;4943558;28;21435;-70
2022/04/11 04:34:07;;;;;;;3.25;2.20;;;;;;;2.91;70.70;101205.00;4925724;28;20049;-70
2022/04/11 04:36:32;;;;;;;2.78;2.38;;;;;;;3.04;69.77;101209.63;4938297;28;20576;-70
2022/04/11 04:38:58;;;;;;;3.83;2.30;;;;;;;2.96;69.77;101207.41;4933138;28;20046;-69
2022/04/11 04:41:23;;;;;;;2.67;2.17;;;;;;;2.83;70.39;101207.16;4922758;28;20042;-71
2022/04/11 04:43:49;;;;;;;2.90;2.50;;;;;;;2.95;69.79;101210.94;4945643;28;20037;-69
2022/04/11 04:46:14;;;;;;;3.67;2.80;;;;;;;2.74;70.33;101213.69;4927945;28;20030;-71
2022/04/11 04:48:39;;;;;;;2.95;2.30;;;;;;;2.74;70.78;101205.84;4941524;28;20954;-72
2022/04/11 04:51:05;;;;;;;2.83;2.60;;;;;;;2.70;70.32;101206.91;4931927;28;20115;-72
2022/04/11 04:53:30;;;;;;;2.50;2.30;;;;;;;2.68;70.33;101207.91;4931392;28;21000;-72
2022/04/11 04:55:55;;;;;;;5.00;2.33;;;;;;;2.60;71.15;101210.06;4946372;28;20455;-72
2022/04/11 04:58:21;;;;;;;4.75;2.30;;;;;;;2.43;71.84;101205.63;4931252;28;20026;-72
2022/04/11 05:00:46;;;;;;;2.53;2.38;;;;;;;2.55;71.71;101205.91;4937463;28;20024;-72
2022/04/11 05:03:11;;;;;;;4.05;2.60;;;;;;;2.70;71.22;101213.91;4931455;28;20023;-72
2022/04/11 05:05:37;;;;;;;3.35;2.33;;;;;;;2.51;72.27;101211.31;4936596;28;20642;-72
2022/04/11 05:08:03;;;;;;;3.40;2.45;;;;;;;2.38;72.69;101206.69;4945789;28;20015;-72
2022/04/11 05:10:28;;;;;;;6.22;2.95;;;;;;;2.47;72.56;101209.78;4921688;28;20023;-72
2022/04/11 05:12:53;;;;;;;2.58;2.38;;;;;;;2.39;72.35;101213.59;4949287;28;20015;-70
2022/04/11 05:15:19;;;;;;;5.03;2.42;;;;;;;2.37;72.62;101210.22;4943433;28;20054;-70
2022/04/11 05:17:44;;;;;;;3.05;2.50;;;;;;;2.26;73.08;101202.06;4939099;28;20114;-71
2022/04/11 05:20:10;;;;;;;3.13;2.60;;;;;;;2.37;72.56;101209.38;4938362;28;20979;-71
2022/04/11 05:22:36;;;;;;;2.70;2.50;;;;;;;2.27;72.75;101206.38;4946370;28;20025;-71
2022/04/11 05:25:01;;;;;;;2.88;2.55;;;;;;;2.21;73.43;101209.25;4939053;28;21117;-71
2022/04/11 05:27:27;;;;;;;3.50;2.67;;;;;;;2.26;73.01;101209.00;4944641;28;20030;-71
2022/04/11 05:29:52;;;;;;;4.88;2.70;;;;;;;2.31;72.90;101204.44;4946329;28;20027;-71
2022/04/11 05:32:17;;;;;;;5.68;3.28;;;;;;;2.35;72.62;101206.81;4939707;28;20027;-71
2022/04/11 05:34:43;;;;;;;3.08;2.85;;;;;;;2.28;73.00;101205.41;4946604;28;20034;-71
2022/04/11 05:37:08;;;;;;;5.45;3.35;;;;;;;2.35;72.78;101201.59;4926252;28;20147;-71
2022/04/11 05:39:34;;;;;;;5.63;3.28;;;;;;;2.42;72.61;101203.94;4928016;28;20033;-70
2022/04/11 05:41:59;;;;;;;3.78;2.80;;;;;;;2.50;71.81;101207.03;4923051;28;20030;-70
2022/04/11 05:44:24;;;;;;;3.40;2.90;;;;;;;2.61;72.00;101216.94;4944015;28;20018;-70
2022/04/11 05:46:52;;;;;;;7.07;3.70;;;;;;;2.65;71.21;101214.16;4946239;28;20030;-70
2022/04/11 05:49:24;;;;;;;3.20;2.90;;;;;;;2.72;71.23;101214.66;4945442;28;20151;-71
2022/04/11 05:51:49;;;;;;;4.18;2.60;;;;;;;2.79;71.32;101218.66;4941137;28;20066;-70
2022/04/11 05:54:15;;;;;;;3.13;2.92;;;;;;;2.90;70.48;101207.69;4935940;28;20027;-71
2022/04/11 05:56:41;;;;;;;3.13;2.92;;;;;;;3.02;70.47;101207.09;4935598;28;20551;-71
2022/04/11 05:59:08;;;;;;;4.07;3.20;;;;;;;3.20;70.19;101214.94;4940207;28;20012;-73
2022/04/11 06:01:34;;;;;;;3.28;3.00;;;;;;;3.33;69.68;101205.56;4948542;28;20539;-73
2022/04/11 06:03:59;;;;;;;4.45;3.70;;;;;;;3.50;69.08;101203.81;4928308;28;20697;-72
2022/04/11 06:06:24;;;;;;;4.00;3.53;;;;;;;3.67;67.44;101202.97;4945628;28;20962;-73
2022/04/11 06:08:51;;;;;;;6.22;3.42;;;;;;;3.91;65.98;101204.25;4935429;28;20030;-70
2022/04/11 06:11:16;;;;;;;3.80;3.03;;;;;;;4.05;64.12;101203.50;4943864;28;20318;-71
2022/04/11 06:13:43;;;;;;;3.08;2.88;;;;;;;4.23;63.73;101201.66;4923253;28;20030;-70
2022/04/11 06:16:09;;;;;;;3.58;2.65;;;;;;;4.48;63.13;101200.28;4928340;28;20053;-70
2022/04/11 06:18:34;;;;;;;3.30;3.00;;;;;;;4.61;62.76;101200.44;4944250;28;20044;-71
2022/04/11 06:20:59;;;;;;;2.88;2.65;;;;;;;4.74;62.00;101201.44;4943999;28;20015;-70
2022/04/11 06:23:25;;;;;;;5.07;3.05;;;;;;;4.87;60.58;101201.59;4937939;28;20036;-71
2022/04/11 06:25:50;;;;;;;5.65;2.97;;;;;;;4.95;61.15;101201.13;4948000;28;20038;-71
2022/04/11 06:28:15;;;;;;;3.85;2.78;;;;;;;5.03;60.40;101206.78;4940274;28;20069;-71
2022/04/11 06:30:41;;;;;;;3.88;3.00;;;;;;;5.15;60.92;101197.34;4945139;28;20762;-70
2022/04/11 06:33:06;;;;;;;5.65;2.85;;;;;;;5.27;59.87;101198.41;4949996;28;20049;-71
2022/04/11 06:35:31;;;;;;;3.05;2.78;;;;;;;5.37;59.89;101207.41;4953535;28;20041;-70
2022/04/11 06:37:57;;;;;;;2.97;2.78;;;;;;;5.52;59.40;101200.41;4924219;28;20041;-71
2022/04/11 06:40:22;;;;;;;3.33;2.95;;;;;;;5.56;59.48;101196.66;4947239;28;20771;-71
2022/04/11 06:42:47;;;;;;;4.15;2.80;;;;;;;5.69;59.07;101199.38;4924455;28;20014;-70
2022/04/11 06:45:14;;;;;;;3.70;3.10;;;;;;;5.80;59.21;101199.56;4949884;28;20030;-73
2022/04/11 06:47:40;;;;;;;4.45;2.67;;;;;;;5.91;60.15;101200.66;4930865;28;20570;-70
2022/04/11 06:50:05;;;;;;;5.32;2.95;;;;;;;6.03;59.91;101207.81;4936302;28;20448;-70
2022/04/11 06:52:31;;;;;;;3.13;2.83;;;;;;;6.16;57.73;101197.38;4925611;28;20141;-71
2022/04/11 06:54:56;;;;;;;3.35;3.05;;;;;;;6.29;57.99;101195.69;4932229;28;20929;-70
2022/04/11 06:57:23;;;;;;;4.00;2.97;;;;;;;6.41;58.75;101207.19;4945587;28;20038;-70
2022/04/11 06:59:49;;;;;;;5.97;2.95;;;;;;;6.57;57.60;101203.56;4949026;28;20494;-70
2022/04/11 07:02:14;;;;;;;6.72;2.85;;;;;;;6.72;57.21;101205.19;4946368;28;20022;-70
2022/04/11 07:04:40;;;;;;;3.50;2.70;;;;;;;6.81;56.26;101204.59;4945206;28;20069;-70
2022/04/11 07:07:05;;;;;;;3.45;2.63;;;;;;;6.93;55.64;101196.84;4936056;28;20922;-68
2022/04/11 07:09:31;;;;;;;3.38;2.88;;;;;;;7.02;55.39;101196.22;4954833;28;20037;-71
2022/04/11 07:11:57;;;;;;;4.03;2.50;;;;;;;7.10;55.23;101193.09;4931861;28;20312;-69
2022/04/11 07:14:22;;;;;;;3.17;2.70;;;;;;;7.30;54.28;101191.72;4944490;28;20125;-70
2022/04/11 07:16:49;;;;;;;3.90;2.60;;;;;;;7.25;55.13;101188.56;4916397;28;20031;-71
2022/04/11 07:19:14;;;;;;;3.13;2.83;;;;;;;7.34;53.95;101190.56;4944312;28;20030;-71
2022/04/11 07:21:40;;;;;;;5.32;3.10;;;;;;;7.42;54.11;101188.25;4946591;28;20018;-71
2022/04/11 07:24:05;;;;;;;3.63;2.40;;;;;;;7.60;53.58;101195.84;4946812;28;20018;-67
2022/04/11 07:26:31;;;;;;;3.97;2.45;;;;;;;7.63;53.41;101191.22;4948178;28;20034;-71
2022/04/11 07:28:56;;;;;;;3.00;2.50;;;;;;;7.62;53.87;101186.06;4946248;28;20033;-71
2022/04/11 07:31:21;;;;;;;3.53;2.60;;;;;;;7.72;53.85;101190.56;4943283;28;20549;-71
2022/04/11 07:33:49;;;;;;;2.88;2.60;;;;;;;7.87;53.23;101188.66;4946472;28;20584;-71
2022/04/11 07:36:14;;;;;;;4.10;2.60;;;;;;;7.91;52.76;101194.56;4975336;28;20017;-71
2022/04/11 07:38:39;;;;;;;6.30;2.60;;;;;;;8.11;53.21;101195.75;4948840;28;20027;-71
2022/04/11 07:41:05;;;;;;;2.40;2.25;;;;;;;8.07;52.91;101200.41;4942635;28;20051;-71
2022/04/11 07:43:30;;;;;;;7.25;2.67;;;;;;;8.20;52.11;101191.63;4951187;28;20034;-70
2022/04/11 07:45:56;;;;;;;2.97;2.58;;;;;;;8.21;51.53;101186.22;4950320;28;20486;-71
2022/04/11 07:48:21;;;;;;;2.53;2.33;;;;;;;8.33;52.55;101188.94;4938061;28;21129;-71
2022/04/11 07:50:47;;;;;;;3.20;2.30;;;;;;;8.31;51.21;101188.22;4951032;28;20022;-71
2022/04/11 07:53:12;;;;;;;3.15;2.40;;;;;;;8.43;51.81;101185.53;4955027;28;20777;-72
2022/04/11 07:55:37;;;;;;;3.78;2.50;;;;;;;8.56;51.44;101185.50;4947883;28;20093;-72
2022/04/11 07:58:03;;;;;;;5.93;2.40;;;;;;;8.61;50.16;101187.78;4947542;28;20030;-72
2022/04/11 08:00:28;;;;;;;4.22;2.65;;;;;;;8.76;50.38;101175.28;4948670;28;20926;-72
2022/04/11 08:02:54;;;;;;;4.35;2.30;;;;;;;8.74;49.71;101169.25;4953070;28;20023;-72
2022/04/11 08:05:20;;;;;;;3.28;2.50;;;;;;;8.82;50.47;101166.88;4925521;28;20035;-70
2022/04/11 08:07:49;;;;;;;2.58;2.38;;;;;;;8.89;50.69;101170.75;4938564;28;20023;-71
2022/04/11 08:10:14;;;;;;;2.55;2.35;;;;;;;8.98;49.58;101165.72;4941247;28;20018;-71
2022/04/11 08:12:55;;;;;;;2.72;2.20;;;;;;;9.03;49.86;101166.25;4947999;28;20237;-70
2022/04/11 08:15:21;;;;;;;3.58;2.50;;;;;;;9.06;50.54;101163.34;4945920;28;20085;-71
2022/04/11 08:17:46;;;;;;;3.65;2.45;;;;;;;9.24;50.62;101159.31;4938405;28;20015;-69
2022/04/11 08:20:12;;;;;;;4.28;2.47;;;;;;;9.24;49.11;101158.47;4934219;28;20800;-70
2022/04/11 08:22:37;;;;;;;3.08;2.40;;;;;;;9.34;49.13;101158.63;4951029;28;20045;-71
2022/04/11 08:25:03;;;;;;;2.72;2.10;;;;;;;9.41;49.56;101151.91;4941564;28;20026;-70
2022/04/11 08:27:28;;;;;;;4.95;2.38;;;;;;;9.50;49.54;101153.81;4943745;28;20217;-71
2022/04/11 08:29:53;;;;;;;4.05;2.38;;;;;;;9.75;47.13;101149.25;4951296;28;20093;-71
2022/04/11 08:32:19;;;;;;;3.53;2.33;;;;;;;9.72;46.17;101152.13;4943230;28;20019;-71
2022/04/11 08:34:44;;;;;;;2.83;2.45;;;;;;;9.80;47.57;101149.72;4954301;28;20944;-72
2022/04/11 08:37:10;;;;;;;3.05;2.22;;;;;;;9.87;46.41;101152.69;4941144;28;21005;-71
2022/04/11 08:39:35;;;;;;;3.55;2.30;;;;;;;10.10;48.66;101153.53;4949696;28;20565;-71
2022/04/11 08:42:01;;;;;;;2.60;2.40;;;;;;;10.36;46.11;101145.31;4925953;28;20034;-70
2022/04/11 08:44:26;;;;;;;3.20;2.40;;;;;;;10.47;48.14;101154.03;4937690;28;20037;-71
2022/04/11 08:46:53;;;;;;;4.75;2.28;;;;;;;10.78;46.98;101130.31;4949495;28;21076;-72
2022/04/11 08:49:18;;;;;;;3.17;2.60;;;;;;;11.00;45.27;101142.59;4922146;28;20030;-70
2022/04/11 08:51:44;;;;;;;2.63;2.40;;;;;;;10.96;43.95;101146.47;4938855;28;20034;-71
2022/04/11 08:54:09;;;;;;;4.82;2.35;;;;;;;10.80;43.14;101140.78;4949586;28;20030;-71
2022/04/11 08:56:35;;;;;;;3.75;2.38;;;;;;;10.89;43.49;101142.66;4966787;28;20039;-72
2022/04/11 08:59:01;;;;;;;2.50;2.22;;;;;;;11.14;42.83;101151.19;4947709;28;20599;-72
2022/04/11 09:01:26;;;;;;;2.10;2.00;;;;;;;11.19;42.30;101143.66;4950080;28;20064;-72
2022/04/11 09:03:52;;;;;;;3.50;2.40;;;;;;;11.28;41.51;101134.09;4957396;28;20985;-72
2022/04/11 09:06:18;;;;;;;2.72;2.30;;;;;;;11.34;42.10;101138.88;4924219;28;20104;-72
2022/04/11 09:08:50;;;;;;;3.33;2.40;;;;;;;11.48;41.25;101133.22;4944576;28;20097;-72
2022/04/11 09:11:32;;;;;;;2.85;2.40;;;;;;;11.46;41.79;101132.53;4951926;28;20057;-72
2022/04/11 09:14:00;;;;;;;2.50;2.25;;;;;;;11.75;41.83;101118.53;4927353;28;20037;-71
2022/04/11 09:16:25;;;;;;;2.60;2.40;;;;;;;11.71;39.89;101130.38;4950892;28;20037;-72
2022/04/11 09:18:52;;;;;;;3.50;2.50;;;;;;;12.00;40.92;101121.66;4938768;28;21019;-72
2022/04/11 09:21:18;;;;;;;4.00;2.72;;;;;;;12.41;40.40;101122.44;4934218;28;20256;-71
2022/04/11 09:23:44;;;;;;;2.83;2.40;;;;;;;12.47;39.24;101118.38;4947544;28;20112;-71
2022/04/11 09:26:22;;;;;;;2.85;2.65;;;;;;;12.75;38.74;101122.00;4944125;28;20828;-72
2022/04/11 09:29:03;;;;;;;4.03;2.70;;;;;;;12.76;37.69;101120.16;4950219;28;20131;-71
2022/04/11 09:31:32;;;;;;;2.75;2.50;;;;;;;12.95;37.69;101117.47;4933931;28;20129;-72
2022/04/11 09:33:58;;;;;;;4.07;2.40;;;;;;;13.16;38.06;101119.94;4926410;28;21067;-72
2022/04/11 09:36:24;;;;;;;3.92;2.13;;;;;;;13.72;37.38;101099.59;4933483;28;20896;-71
2022/04/11 09:38:59;;;;;;;3.50;2.35;;;;;;;14.33;38.10;101101.72;4941383;28;20034;-72
2022/04/11 09:41:29;;;;;;;2.80;2.60;;;;;;;14.36;35.63;101102.22;4937105;28;20018;-71
2022/04/11 09:43:54;;;;;;;2.85;2.60;;;;;;;14.30;35.02;101096.66;4934098;28;20023;-72
2022/04/11 09:46:20;;;;;;;2.78;2.35;;;;;;;14.87;37.12;101101.66;4953306;28;20006;-71
2022/04/11 09:48:45;;;;;;;3.83;2.50;;;;;;;14.80;33.78;101098.78;4949678;28;20034;-71
2022/04/11 09:51:13;;;;;;;4.50;2.60;;;;;;;15.16;35.18;101101.34;4931670;28;20010;-72
2022/04/11 09:53:39;;;;;;;2.47;2.17;;;;;;;15.01;34.11;101095.75;4948472;28;20033;-72
2022/04/11 09:56:08;;;;;;;3.38;2.58;;;;;;;14.91;33.34;101090.53;4944670;28;20038;-70
2022/04/11 09:58:34;;;;;;;2.33;2.22;;;;;;;15.16;34.45;101092.50;4929962;28;20948;-72
2022/04/11 10:00:59;;;;;;;2.70;2.13;;;;;;;15.24;34.90;101084.53;4929786;28;20137;-71
2022/04/11 10:03:25;;;;;;;2.28;2.08;;;;;;;16.13;31.97;101091.22;4941667;28;20034;-72
2022/04/11 10:05:50;;;;;;;2.40;2.20;;;;;;;16.09;32.03;101083.66;4941044;28;20027;-71
2022/04/11 10:08:16;;;;;;;2.10;1.90;;;;;;;16.60;30.91;101076.34;4944253;28;20095;-71
2022/04/11 10:10:41;;;;;;;2.53;2.08;;;;;;;16.54;29.71;101082.38;4946416;28;20077;-71
2022/04/11 10:13:08;;;;;;;2.20;1.98;;;;;;;16.05;30.88;101079.69;4945713;28;20031;-71
2022/04/11 10:15:33;;;;;;;3.22;2.05;;;;;;;16.48;29.90;101078.53;4954910;28;20180;-71
2022/04/11 10:17:58;;;;;;;2.45;1.85;;;;;;;17.01;29.93;101072.00;4931634;28;20663;-71
2022/04/11 10:20:27;;;;;;;2.28;1.60;;;;;;;17.24;29.46;101062.19;4944242;28;20030;-71
2022/04/11 10:23:30;;;;;;;2.10;1.80;;;;;;;17.22;28.92;101060.69;4947252;28;20775;-72
2022/04/11 10:25:57;;;;;;;1.70;1.60;;;;;;;16.95;29.00;101052.94;4937703;28;20019;-71
2022/04/11 10:28:23;;;;;;;2.47;2.28;;;;;;;16.74;29.12;101049.97;4915975;28;20032;-71
2022/04/11 10:31:15;;;;;;;3.08;1.75;;;;;;;17.27;27.59;101039.63;4934084;28;20026;-71
2022/04/11 10:33:51;;;;;;;2.70;1.75;;;;;;;17.28;27.45;101046.66;4946995;28;21139;-72
2022/04/11 10:36:32;;;;;;;1.83;1.70;;;;;;;17.46;26.66;101049.91;4950594;28;20031;-71
2022/04/11 10:39:16;;;;;;;2.85;1.77;;;;;;;17.75;27.58;101034.19;4941203;28;20042;-71
2022/04/11 10:41:57;;;;;;;2.80;1.77;;;;;;;17.89;26.05;101032.59;4950736;28;20053;-71
2022/04/11 10:44:44;;;;;;;3.13;1.67;;;;;;;18.54;25.85;101032.09;4951673;28;20153;-72
2022/04/11 10:47:12;;;;;;;2.28;1.80;;;;;;;18.28;27.93;101027.13;4977502;28;20102;-72
2022/04/11 10:49:50;;;;;;;3.72;1.88;;;;;;;18.58;26.10;101021.84;4960172;28;20341;-72
2022/04/11 10:55:06;;;;;;;1.98;1.80;;;;;;;18.58;25.13;101015.66;4954563;28;20039;-71
2022/04/11 10:57:33;;;;;;;1.58;1.48;;;;;;;18.52;24.33;101011.84;4951579;28;20031;-72
2022/04/11 11:00:08;;;;;;;1.88;1.70;;;;;;;18.81;24.15;101011.06;4929634;28;20059;-72
2022/04/11 11:02:52;;;;;;;2.13;1.70;;;;;;;18.47;23.67;101015.09;4936121;28;20057;-71
2022/04/11 11:05:25;;;;;;;2.25;1.80;;;;;;;18.61;25.83;101004.56;4954627;28;20038;-71
2022/04/11 11:08:06;;;;;;;2.65;1.55;;;;;;;19.16;26.72;101008.66;4947552;28;20137;-72
2022/04/11 11:11:02;;;;;;;1.85;1.75;;;;;;;19.29;26.34;101001.78;4952979;28;20510;-72
2022/04/11 11:13:38;;;;;;;1.70;1.50;;;;;;;20.04;26.98;100994.34;4929787;28;20111;-72
2022/04/11 11:16:03;;;;;;;1.50;1.40;;;;;;;20.11;26.13;100984.47;4942500;28;20054;-72
2022/04/11 11:18:51;;;;;;;1.63;1.50;;;;;;;20.10;24.67;100982.81;4951130;28;20033;-72
2022/04/11 11:21:47;;;;;;;1.50;1.40;;;;;;;19.97;24.20;100982.72;4951943;28;21132;-72
2022/04/11 11:24:13;;;;;;;2.13;1.40;;;;;;;20.24;24.70;100973.00;4954150;28;20115;-72
2022/04/11 11:26:45;;;;;;;1.65;1.50;;;;;;;19.26;23.39;100972.66;4938246;28;20547;-71
2022/04/11 11:29:23;;;;;;;1.95;1.10;;;;;;;19.74;23.36;100965.75;4933235;28;20317;-72
2022/04/11 11:31:50;;;;;;;2.63;1.60;;;;;;;20.66;21.19;100960.47;4956921;28;20022;-72
2022/04/11 11:34:20;;;;;;;4.80;1.50;;;;;;;20.82;23.04;100951.25;4946157;28;20416;-73